Time;durP1;ratioP1;P1;durP2;ratioP2;P2;SDS_P1;SDS_P2;PMS_P1;PMS_P2;Temp;Humidity;BMP_temperature;BMP_pressure;BME280_temperature;BME280_humidity;BME280_pressure;Samples;Min_cycle;Max_cycle;Signal;HPM_P1;HPM_P2
2022/12/03 00:00:20;;;;;;;36.97;19.77;;;0.40;99.90;;;;;;5073852;28;20212;-49
2022/12/03 00:02:47;;;;;;;30.77;18.00;;;0.40;99.90;;;;;;5071780;28;20206;-50
2022/12/03 00:05:13;;;;;;;31.53;20.10;;;0.30;99.90;;;;;;5069930;28;20236;-50
2022/12/03 00:07:40;;;;;;;33.67;18.73;;;0.30;99.90;;;;;;5081653;28;20262;-49
2022/12/03 00:10:09;;;;;;;33.60;18.93;;;0.30;99.90;;;;;;5072256;28;20668;-50
2022/12/03 00:12:37;;;;;;;36.07;20.40;;;0.30;99.90;;;;;;5062969;28;20212;-49
2022/12/03 00:15:05;;;;;;;34.53;18.13;;;0.20;99.90;;;;;;5075687;28;20654;-50
2022/12/03 00:17:32;;;;;;;34.23;18.40;;;0.20;99.90;;;;;;5068638;28;20237;-50
2022/12/03 00:19:59;;;;;;;34.40;18.30;;;0.20;99.90;;;;;;5065159;28;20242;-49
2022/12/03 00:22:27;;;;;;;28.60;17.07;;;0.20;99.90;;;;;;5073637;28;20578;-50
2022/12/03 00:24:53;;;;;;;33.47;18.43;;;0.20;99.90;;;;;;5066257;28;20587;-49
2022/12/03 00:27:20;;;;;;;29.47;17.63;;;0.20;99.90;;;;;;5067309;28;20891;-50
2022/12/03 00:29:49;;;;;;;27.53;15.63;;;0.20;99.90;;;;;;5073483;28;20207;-50
2022/12/03 00:32:16;;;;;;;34.20;16.73;;;0.20;99.90;;;;;;5059813;28;20234;-50
2022/12/03 00:34:43;;;;;;;27.63;16.67;;;0.20;99.90;;;;;;5075727;28;20219;-48
2022/12/03 00:37:10;;;;;;;32.07;17.70;;;0.20;99.90;;;;;;5068399;28;20747;-49
2022/12/03 00:39:38;;;;;;;28.80;15.80;;;0.20;99.90;;;;;;5070099;28;20249;-50
2022/12/03 00:42:06;;;;;;;33.10;16.00;;;0.20;99.90;;;;;;5073395;28;20210;-49
2022/12/03 00:44:33;;;;;;;26.00;15.87;;;0.30;99.90;;;;;;5073691;28;20221;-49
2022/12/03 00:47:01;;;;;;;33.30;16.93;;;0.20;99.90;;;;;;5060243;28;20272;-51
2022/12/03 00:49:28;;;;;;;33.70;17.40;;;0.30;99.90;;;;;;5053188;28;20233;-50
2022/12/03 00:51:55;;;;;;;34.60;16.90;;;0.30;99.90;;;;;;5066649;28;20715;-50
2022/12/03 00:54:22;;;;;;;26.37;15.97;;;0.30;99.90;;;;;;5062340;28;20766;-49
2022/12/03 00:56:49;;;;;;;25.70;15.37;;;0.30;99.90;;;;;;5068629;28;20274;-50
2022/12/03 00:59:16;;;;;;;28.00;16.33;;;0.30;99.90;;;;;;5071536;28;20303;-50
2022/12/03 01:01:43;;;;;;;30.83;17.60;;;0.30;99.90;;;;;;5055535;28;20198;-50
2022/12/03 01:04:11;;;;;;;28.00;16.20;;;0.20;99.90;;;;;;5058176;28;20245;-49
2022/12/03 01:06:38;;;;;;;29.47;15.37;;;0.20;99.90;;;;;;5076015;28;20203;-49
2022/12/03 01:09:05;;;;;;;30.00;16.47;;;0.20;99.90;;;;;;5073050;28;20221;-49
2022/12/03 01:11:38;;;;;;;30.50;15.30;;;0.20;99.90;;;;;;5073147;28;20206;-49
2022/12/03 01:14:06;;;;;;;28.77;14.40;;;0.20;99.90;;;;;;5067863;28;20592;-49
2022/12/03 01:16:33;;;;;;;26.10;14.13;;;0.20;99.90;;;;;;5061634;28;20207;-50
2022/12/03 01:19:00;;;;;;;27.30;16.53;;;0.10;99.90;;;;;;5081147;28;20224;-49
2022/12/03 01:21:29;;;;;;;26.37;14.20;;;0.20;99.90;;;;;;5090452;28;20202;-50
2022/12/03 01:23:56;;;;;;;28.10;15.93;;;0.20;99.90;;;;;;5078575;28;20218;-49
2022/12/03 01:26:24;;;;;;;26.00;15.77;;;0.20;99.90;;;;;;5092615;28;20198;-50
2022/12/03 01:28:51;;;;;;;24.60;14.10;;;0.10;99.90;;;;;;5088490;28;20214;-49
2022/12/03 01:34:03;;;;;;;26.43;14.93;;;0.10;99.90;;;;;;5070069;28;20246;-49
2022/12/03 01:36:33;;;;;;;24.73;14.63;;;0.10;99.90;;;;;;5073812;28;20226;-49
2022/12/03 01:39:00;;;;;;;26.60;15.30;;;0.00;99.90;;;;;;5063091;28;20222;-51
2022/12/03 01:41:27;;;;;;;29.97;15.40;;;0.00;99.90;;;;;;5068966;28;20205;-50
2022/12/03 01:43:56;;;;;;;25.20;15.23;;;0.00;99.90;;;;;;5063509;28;20211;-50
2022/12/03 01:46:26;;;;;;;24.73;14.23;;;0.00;99.90;;;;;;5073826;28;20210;-49
2022/12/03 01:48:55;;;;;;;26.27;16.57;;;0.00;99.90;;;;;;5052898;28;20195;-49
2022/12/03 01:51:23;;;;;;;24.70;14.53;;;0.00;99.90;;;;;;5052031;28;20205;-49
2022/12/03 01:53:51;;;;;;;24.17;15.67;;;-0.10;99.90;;;;;;5070919;28;20203;-49
2022/12/03 01:56:19;;;;;;;27.00;15.47;;;-0.10;99.90;;;;;;5071516;28;20629;-50
2022/12/03 01:58:47;;;;;;;25.87;14.83;;;-0.10;99.90;;;;;;5061438;28;20662;-50
2022/12/03 02:01:16;;;;;;;25.77;13.67;;;-0.10;99.90;;;;;;5051757;28;20202;-50
2022/12/03 02:03:44;;;;;;;20.80;13.40;;;-0.10;99.90;;;;;;5061900;28;20236;-50
2022/12/03 02:06:16;;;;;;;24.83;14.93;;;-0.10;99.90;;;;;;5073369;28;20225;-50
2022/12/03 02:08:44;;;;;;;29.03;16.83;;;-0.20;99.90;;;;;;5054343;28;20195;-49
2022/12/03 02:11:20;;;;;;;26.17;15.23;;;-0.20;99.90;;;;;;5061713;28;20723;-50
2022/12/03 02:13:51;;;;;;;32.17;18.83;;;-0.20;99.90;;;;;;5062142;28;20239;-50
2022/12/03 02:16:18;;;;;;;27.90;17.97;;;-0.20;99.90;;;;;;5074061;28;20213;-49
2022/12/03 02:18:45;;;;;;;28.73;17.43;;;-0.20;99.90;;;;;;5071567;28;20226;-49
2022/12/03 02:21:20;;;;;;;33.90;18.23;;;-0.30;99.90;;;;;;5070053;28;20680;-50
2022/12/03 02:23:58;;;;;;;29.40;18.33;;;-0.30;99.90;;;;;;5068767;28;20203;-48
2022/12/03 02:26:27;;;;;;;36.63;19.57;;;-0.30;99.90;;;;;;5066577;28;20201;-51
2022/12/03 02:28:54;;;;;;;27.77;17.30;;;-0.40;99.90;;;;;;5071574;28;20571;-49
2022/12/03 02:31:21;;;;;;;28.73;18.20;;;-0.40;99.90;;;;;;5066071;28;20208;-52
2022/12/03 02:33:48;;;;;;;30.33;17.43;;;-0.40;99.90;;;;;;5061059;28;20683;-49
2022/12/03 02:36:15;;;;;;;31.17;16.37;;;-0.40;99.90;;;;;;5072027;28;20201;-52
2022/12/03 02:38:44;;;;;;;36.80;18.27;;;-0.40;99.90;;;;;;5071234;28;20218;-50
2022/12/03 02:42:33;;;;;;;27.43;15.53;;;-0.40;99.90;;;;;;5070632;28;20207;-50
2022/12/03 02:44:03;;;;;;;27.37;15.40;;;-0.40;99.90;;;;;;5058354;28;20222;-50
2022/12/03 02:46:30;;;;;;;28.73;17.47;;;-0.50;99.90;;;;;;5053559;28;20204;-49
2022/12/03 02:48:58;;;;;;;24.97;14.47;;;-0.50;99.90;;;;;;5068612;28;20759;-49
2022/12/03 02:51:26;;;;;;;28.73;16.70;;;-0.50;99.90;;;;;;5051492;28;20210;-51
2022/12/03 02:53:54;;;;;;;26.53;15.03;;;-0.50;99.90;;;;;;5068952;28;20236;-51
2022/12/03 02:56:26;;;;;;;25.13;14.97;;;-0.40;99.90;;;;;;5070220;28;20205;-52
2022/12/03 02:58:57;;;;;;;32.93;17.43;;;-0.40;99.90;;;;;;5071369;28;20634;-49
2022/12/03 03:01:25;;;;;;;28.17;16.03;;;-0.30;99.90;;;;;;5071515;28;20201;-52
2022/12/03 03:03:53;;;;;;;24.00;15.67;;;-0.40;99.90;;;;;;5065151;28;20217;-50
2022/12/03 03:06:21;;;;;;;30.70;16.07;;;-0.40;99.90;;;;;;5057348;28;20202;-50
2022/12/03 03:08:48;;;;;;;27.23;14.77;;;-0.50;99.90;;;;;;5071228;28;20198;-50
2022/12/03 03:11:16;;;;;;;29.37;15.40;;;-0.60;99.90;;;;;;5074064;28;20231;-49
2022/12/03 03:13:43;;;;;;;25.63;15.13;;;-0.50;99.90;;;;;;5071112;28;20203;-49
2022/12/03 03:16:10;;;;;;;22.07;13.60;;;-0.50;99.90;;;;;;5075886;28;20231;-51
2022/12/03 03:18:39;;;;;;;29.43;16.73;;;-0.60;99.90;;;;;;5066418;28;20211;-50
2022/12/03 03:21:07;;;;;;;31.83;15.33;;;-0.50;99.90;;;;;;5062238;28;20680;-50
2022/12/03 03:23:34;;;;;;;25.53;16.30;;;-0.50;99.90;;;;;;5069761;28;20356;-49
2022/12/03 03:26:04;;;;;;;31.47;16.67;;;-0.40;99.90;;;;;;5066680;28;20200;-50
2022/12/03 03:28:34;;;;;;;28.70;16.00;;;-0.40;99.90;;;;;;5075059;28;20235;-50
2022/12/03 03:31:03;;;;;;;26.17;15.03;;;-0.40;99.90;;;;;;5078363;28;20200;-49
2022/12/03 03:33:30;;;;;;;28.80;17.00;;;-0.40;99.90;;;;;;5065954;28;20214;-49
2022/12/03 03:35:59;;;;;;;24.70;16.00;;;-0.40;99.90;;;;;;5054707;28;20627;-49
2022/12/03 03:38:27;;;;;;;25.87;15.73;;;-0.40;99.90;;;;;;5054708;28;20226;-50
2022/12/03 03:40:56;;;;;;;26.50;15.83;;;-0.30;99.90;;;;;;5053316;28;20621;-50
2022/12/03 03:43:24;;;;;;;23.63;14.43;;;-0.20;99.90;;;;;;5069993;28;20210;-52
2022/12/03 03:45:52;;;;;;;23.07;14.60;;;-0.30;99.90;;;;;;5074226;28;20268;-51
2022/12/03 03:48:20;;;;;;;34.53;16.70;;;-0.40;99.90;;;;;;5073137;28;20204;-50
2022/12/03 03:50:47;;;;;;;25.53;14.57;;;-0.40;99.90;;;;;;5056599;28;20677;-50
2022/12/03 03:53:17;;;;;;;25.17;15.40;;;-0.40;99.90;;;;;;5065266;28;20218;-51
2022/12/03 03:55:45;;;;;;;25.10;15.90;;;-0.40;99.90;;;;;;5074163;28;20226;-50
2022/12/03 03:58:12;;;;;;;26.30;14.53;;;-0.40;99.90;;;;;;5074208;28;20206;-50
2022/12/03 04:00:39;;;;;;;18.97;12.30;;;-0.40;99.90;;;;;;5075632;28;20227;-50
2022/12/03 04:03:07;;;;;;;26.57;13.77;;;-0.40;99.90;;;;;;5070985;28;20206;-49
2022/12/03 04:05:34;;;;;;;24.30;12.77;;;-0.40;99.90;;;;;;5077424;28;20243;-51
2022/12/03 04:08:01;;;;;;;27.80;15.70;;;-0.40;99.90;;;;;;5074054;28;20206;-49
2022/12/03 04:13:13;;;;;;;23.73;12.70;;;-0.30;99.90;;;;;;5068539;28;20211;-50
2022/12/03 04:15:40;;;;;;;20.37;13.07;;;-0.30;99.90;;;;;;5067476;28;20223;-51
2022/12/03 04:22:38;;;;;;;26.00;14.67;;;-0.30;99.90;;;;;;5073539;28;20203;-49
2022/12/03 04:23:38;;;;;;;26.13;12.83;;;-0.20;99.90;;;;;;5075701;28;20209;-49
2022/12/03 04:29:03;;;;;;;23.37;13.77;;;-0.20;99.90;;;;;;5007024;28;20270;-52
2022/12/03 04:36:59;;;;;;;24.63;12.93;;;-0.10;99.90;;;;;;5061806;28;20606;-51
2022/12/03 04:39:26;;;;;;;21.30;12.87;;;-0.10;99.90;;;;;;5064629;28;20232;-50
2022/12/03 04:41:54;;;;;;;25.53;13.73;;;-0.20;99.90;;;;;;5073207;28;20210;-52
2022/12/03 04:44:34;;;;;;;18.87;12.33;;;-0.20;99.90;;;;;;5071628;28;20232;-50
2022/12/03 04:47:04;;;;;;;18.10;12.37;;;-0.30;99.90;;;;;;5075586;28;20222;-50
2022/12/03 04:49:36;;;;;;;27.30;15.90;;;-0.30;99.90;;;;;;5070691;28;20198;-50
2022/12/03 04:52:04;;;;;;;30.00;17.23;;;-0.30;99.90;;;;;;5059690;28;20295;-49
2022/12/03 04:54:31;;;;;;;37.10;17.97;;;-0.30;99.90;;;;;;5070187;28;20224;-51
2022/12/03 04:56:59;;;;;;;31.37;16.17;;;-0.30;99.90;;;;;;5053178;28;20229;-49
2022/12/03 04:59:27;;;;;;;28.97;15.67;;;-0.30;99.90;;;;;;5068259;28;20213;-50
2022/12/03 05:01:54;;;;;;;27.97;15.20;;;-0.30;99.90;;;;;;5070805;28;20202;-49
2022/12/03 05:04:21;;;;;;;24.83;14.60;;;-0.30;99.90;;;;;;5071023;28;20226;-49
2022/12/03 05:06:48;;;;;;;20.50;13.37;;;-0.30;99.90;;;;;;5070792;28;20311;-50
2022/12/03 05:09:16;;;;;;;24.93;15.33;;;-0.30;99.90;;;;;;5053063;28;20594;-50
2022/12/03 05:11:43;;;;;;;26.03;13.80;;;-0.40;99.90;;;;;;5067065;28;20303;-50
2022/12/03 05:14:12;;;;;;;25.33;15.53;;;-0.50;99.90;;;;;;5071809;28;20246;-49
2022/12/03 05:16:39;;;;;;;24.50;14.60;;;-0.50;99.90;;;;;;5073383;28;20197;-49
2022/12/03 05:19:10;;;;;;;29.87;15.00;;;-0.50;99.90;;;;;;5072126;28;20227;-50
2022/12/03 05:21:36;;;;;;;21.90;14.40;;;-0.50;99.90;;;;;;5068695;28;20203;-49
2022/12/03 05:24:03;;;;;;;26.73;15.50;;;-0.60;99.90;;;;;;5069077;28;20215;-50
2022/12/03 05:26:30;;;;;;;24.60;16.37;;;-0.60;99.90;;;;;;5063894;28;20209;-49
2022/12/03 05:28:57;;;;;;;22.33;13.70;;;-0.70;99.90;;;;;;5071992;28;20207;-49
2022/12/03 05:31:26;;;;;;;27.27;15.43;;;-0.70;99.90;;;;;;5069946;28;20202;-50
2022/12/03 05:33:53;;;;;;;22.47;13.23;;;-0.70;99.90;;;;;;5059725;28;20198;-49
2022/12/03 05:36:20;;;;;;;23.40;13.73;;;-0.70;99.90;;;;;;5069253;28;20206;-49
2022/12/03 05:38:47;;;;;;;23.90;14.03;;;-0.70;99.90;;;;;;5070218;28;20664;-50
2022/12/03 05:44:10;;;;;;;26.03;16.03;;;-0.70;99.90;;;;;;5045706;28;20744;-50
2022/12/03 05:46:39;;;;;;;27.23;15.00;;;-0.80;99.90;;;;;;5070983;28;20202;-50
2022/12/03 05:49:06;;;;;;;21.80;12.97;;;-0.90;99.90;;;;;;5071932;28;20210;-49
2022/12/03 05:51:33;;;;;;;24.30;14.93;;;-0.90;99.90;;;;;;5066965;28;20210;-49
2022/12/03 05:54:00;;;;;;;24.03;13.37;;;-0.90;99.90;;;;;;5070746;28;20223;-49
2022/12/03 05:56:27;;;;;;;22.53;13.73;;;-0.90;99.90;;;;;;5070360;28;20205;-51
2022/12/03 05:58:55;;;;;;;22.83;15.80;;;-0.90;99.90;;;;;;5076215;28;20198;-50
2022/12/03 06:01:22;;;;;;;23.67;15.93;;;-0.90;99.90;;;;;;5071562;28;20199;-49
2022/12/03 06:03:51;;;;;;;25.33;15.23;;;-0.90;99.90;;;;;;5070703;28;20307;-50
2022/12/03 06:06:18;;;;;;;21.47;13.77;;;-0.90;99.90;;;;;;5070289;28;20199;-50
2022/12/03 06:08:45;;;;;;;23.27;13.53;;;-0.90;99.90;;;;;;5071250;28;20259;-49
2022/12/03 06:11:12;;;;;;;21.73;12.93;;;-0.90;99.90;;;;;;5071554;28;20200;-49
2022/12/03 06:13:39;;;;;;;26.20;14.13;;;-0.90;99.90;;;;;;5070521;28;20214;-50
2022/12/03 06:16:06;;;;;;;26.37;14.53;;;-0.90;99.90;;;;;;5069777;28;20206;-50
2022/12/03 06:18:33;;;;;;;24.60;13.70;;;-1.00;99.90;;;;;;5062518;28;20226;-49
2022/12/03 06:21:02;;;;;;;20.80;14.07;;;-0.90;99.90;;;;;;5071007;28;20226;-49
2022/12/03 06:23:32;;;;;;;26.07;14.20;;;-1.00;99.90;;;;;;5068919;28;20216;-50
2022/12/03 06:25:59;;;;;;;23.37;14.07;;;-1.00;99.90;;;;;;5060503;28;20220;-49
2022/12/03 06:28:26;;;;;;;26.20;14.33;;;-1.00;99.90;;;;;;5059046;28;20598;-50
2022/12/03 06:30:53;;;;;;;28.43;14.70;;;-0.90;99.90;;;;;;5059994;28;20246;-50
2022/12/03 06:33:20;;;;;;;27.17;15.90;;;-1.00;99.90;;;;;;5065461;28;20245;-49
2022/12/03 06:35:47;;;;;;;23.10;14.53;;;-1.00;99.90;;;;;;5065999;28;20300;-49
2022/12/03 06:38:16;;;;;;;21.73;12.57;;;-1.00;99.90;;;;;;5074370;28;20257;-50
2022/12/03 06:40:43;;;;;;;19.50;12.97;;;-1.00;99.90;;;;;;5075993;28;20253;-50
2022/12/03 06:43:10;;;;;;;24.77;14.50;;;-0.90;99.90;;;;;;5070705;28;20271;-50
2022/12/03 06:45:37;;;;;;;20.37;13.37;;;-0.90;99.90;;;;;;5071384;28;20314;-49
2022/12/03 06:48:04;;;;;;;24.37;14.30;;;-0.80;99.90;;;;;;5070797;28;20206;-50
2022/12/03 06:50:31;;;;;;;26.63;15.37;;;-0.80;99.90;;;;;;5071424;28;20263;-50
2022/12/03 06:52:58;;;;;;;22.80;13.93;;;-0.80;99.90;;;;;;5076399;28;20258;-49
2022/12/03 06:55:26;;;;;;;24.80;15.33;;;-0.70;99.90;;;;;;5066620;28;20221;-50
2022/12/03 06:57:53;;;;;;;22.83;14.30;;;-0.70;99.90;;;;;;5072578;28;20254;-49
2022/12/03 07:00:21;;;;;;;25.83;17.00;;;-0.70;99.90;;;;;;5071708;28;20239;-49
2022/12/03 07:02:48;;;;;;;27.67;17.43;;;-0.60;99.90;;;;;;5070287;28;20202;-49
2022/12/03 07:05:15;;;;;;;33.77;21.37;;;-0.60;99.90;;;;;;5066228;28;20231;-50
2022/12/03 07:07:42;;;;;;;30.70;21.00;;;-0.60;99.90;;;;;;5068127;28;20251;-50
2022/12/03 07:10:09;;;;;;;31.00;19.60;;;-0.50;99.90;;;;;;5070583;28;20207;-50
2022/12/03 07:12:38;;;;;;;29.37;19.57;;;-0.50;99.90;;;;;;5066290;28;20199;-50
2022/12/03 07:15:06;;;;;;;22.73;15.03;;;-0.60;99.90;;;;;;5070630;28;20223;-49
2022/12/03 07:17:33;;;;;;;17.83;11.83;;;-0.60;99.90;;;;;;5071139;28;20205;-50
2022/12/03 07:20:00;;;;;;;19.47;12.30;;;-0.60;99.90;;;;;;5069281;28;20218;-49
2022/12/03 07:22:27;;;;;;;20.10;12.60;;;-0.60;99.90;;;;;;5068073;28;20203;-49
2022/12/03 07:24:54;;;;;;;21.03;13.33;;;-0.60;99.90;;;;;;5063175;28;20224;-49
2022/12/03 07:27:21;;;;;;;20.77;13.57;;;-0.60;99.90;;;;;;5070130;28;20210;-50
2022/12/03 07:29:49;;;;;;;23.60;13.33;;;-0.60;99.90;;;;;;5070084;28;20253;-50
2022/12/03 07:32:16;;;;;;;26.97;14.43;;;-0.60;99.90;;;;;;5070304;28;20264;-50
2022/12/03 07:34:43;;;;;;;25.33;13.80;;;-0.50;99.90;;;;;;5067112;28;20275;-49
2022/12/03 07:37:10;;;;;;;27.10;14.60;;;-0.50;99.90;;;;;;5070393;28;20225;-50
2022/12/03 07:39:40;;;;;;;27.77;15.13;;;-0.40;99.90;;;;;;5070688;28;20215;-48
2022/12/03 07:42:08;;;;;;;24.33;14.83;;;-0.30;99.90;;;;;;5070161;28;20239;-50
2022/12/03 07:44:39;;;;;;;29.33;14.60;;;-0.30;99.90;;;;;;5069584;28;20230;-49
2022/12/03 07:47:07;;;;;;;26.27;16.07;;;-0.30;99.90;;;;;;5070942;28;20204;-49
2022/12/03 07:49:38;;;;;;;34.83;16.70;;;-0.20;99.90;;;;;;5069888;28;20293;-50
2022/12/03 07:52:06;;;;;;;32.43;17.23;;;-0.20;99.90;;;;;;5062935;28;20317;-50
2022/12/03 07:54:33;;;;;;;32.80;16.87;;;-0.20;99.90;;;;;;5069047;28;20924;-50
2022/12/03 07:57:00;;;;;;;26.10;15.40;;;-0.10;99.90;;;;;;5060794;28;20197;-49
2022/12/03 07:59:27;;;;;;;27.77;14.83;;;0.00;99.90;;;;;;5054173;28;20207;-50
2022/12/03 08:01:54;;;;;;;20.47;13.80;;;0.00;99.90;;;;;;5072192;28;20681;-49
2022/12/03 08:04:22;;;;;;;26.60;14.93;;;0.00;99.90;;;;;;5071339;28;20283;-50
2022/12/03 08:06:49;;;;;;;21.23;14.30;;;0.10;99.90;;;;;;5072209;28;20253;-49
2022/12/03 08:09:16;;;;;;;24.77;14.20;;;0.20;99.90;;;;;;5073319;28;20258;-49
2022/12/03 08:11:45;;;;;;;22.17;13.33;;;0.20;99.90;;;;;;5056144;28;20198;-52
2022/12/03 08:14:13;;;;;;;24.07;13.00;;;0.20;99.90;;;;;;5052783;28;20222;-51
2022/12/03 08:16:41;;;;;;;22.30;13.57;;;0.30;99.90;;;;;;5072743;28;20225;-50
2022/12/03 08:19:10;;;;;;;26.00;14.93;;;0.30;99.90;;;;;;5073529;28;20347;-50
2022/12/03 08:21:40;;;;;;;18.27;12.33;;;0.40;99.90;;;;;;5073279;28;20352;-49
2022/12/03 08:24:14;;;;;;;35.73;19.57;;;0.40;99.90;;;;;;5070662;28;20236;-49
2022/12/03 08:26:43;;;;;;;39.70;22.60;;;0.20;99.90;;;;;;5064773;28;20201;-50
2022/12/03 08:29:11;;;;;;;40.07;22.67;;;0.50;99.90;;;;;;5072451;28;20288;-50
2022/12/03 08:31:39;;;;;;;30.73;19.47;;;0.60;99.90;;;;;;5075691;28;20667;-50
2022/12/03 08:34:18;;;;;;;26.47;17.67;;;0.60;99.90;;;;;;5070388;28;20226;-50
2022/12/03 08:36:47;;;;;;;27.40;17.50;;;0.60;99.90;;;;;;5073022;28;20229;-50
2022/12/03 08:39:28;;;;;;;29.20;17.83;;;0.70;99.90;;;;;;5073216;28;20267;-50
2022/12/03 08:44:42;;;;;;;30.60;19.70;;;0.70;99.90;;;;;;5073820;28;20363;-50
2022/12/03 08:47:16;;;;;;;26.37;18.90;;;0.70;99.90;;;;;;5072874;28;20199;-51
2022/12/03 08:49:47;;;;;;;30.00;17.80;;;0.70;99.90;;;;;;5064538;28;20199;-51
2022/12/03 08:52:20;;;;;;;29.47;18.37;;;0.80;99.90;;;;;;5077131;28;20638;-50
2022/12/03 08:54:52;;;;;;;29.53;18.00;;;0.80;99.90;;;;;;5069108;28;20223;-52
2022/12/03 08:57:27;;;;;;;29.67;17.17;;;0.80;99.90;;;;;;5072627;28;20246;-49
2022/12/03 08:59:58;;;;;;;31.57;18.63;;;0.80;99.90;;;;;;5070492;28;20207;-50
2022/12/03 09:02:31;;;;;;;23.10;14.60;;;0.90;99.90;;;;;;5075090;28;20711;-49
2022/12/03 09:04:59;;;;;;;18.93;14.50;;;1.00;99.90;;;;;;5076440;28;20313;-51
2022/12/03 09:07:27;;;;;;;19.70;13.57;;;1.00;99.90;;;;;;5070069;28;20963;-50
2022/12/03 09:09:54;;;;;;;17.70;12.73;;;1.10;99.90;;;;;;5065750;28;20199;-50
2022/12/03 09:12:21;;;;;;;17.30;12.63;;;1.10;99.90;;;;;;5055762;28;20217;-49
2022/12/03 09:14:48;;;;;;;23.50;14.57;;;1.10;99.90;;;;;;5071016;28;20222;-50
2022/12/03 09:17:15;;;;;;;19.73;13.40;;;1.20;99.90;;;;;;5072927;28;20252;-49
2022/12/03 09:19:44;;;;;;;26.13;16.93;;;1.20;99.90;;;;;;5073050;28;20198;-49
2022/12/03 09:22:12;;;;;;;35.10;23.07;;;1.20;99.90;;;;;;5073221;28;20237;-50
2022/12/03 09:24:43;;;;;;;33.10;24.57;;;1.30;99.90;;;;;;5070854;28;20226;-50
2022/12/03 09:27:10;;;;;;;36.63;22.80;;;1.30;99.90;;;;;;5072689;28;20553;-49
2022/12/03 09:29:39;;;;;;;26.97;18.77;;;1.50;99.90;;;;;;5072848;28;20272;-50
2022/12/03 09:32:06;;;;;;;23.40;18.47;;;1.50;99.90;;;;;;5070550;28;20195;-50
2022/12/03 09:34:37;;;;;;;30.63;19.90;;;1.60;99.90;;;;;;5067596;28;20863;-50
2022/12/03 09:37:04;;;;;;;25.53;16.67;;;1.60;99.90;;;;;;5052804;28;20203;-50
2022/12/03 09:39:32;;;;;;;23.53;14.63;;;1.70;99.90;;;;;;5065915;28;20257;-50
2022/12/03 09:42:00;;;;;;;22.93;14.83;;;1.70;99.90;;;;;;5075232;28;20233;-50
2022/12/03 09:44:29;;;;;;;36.03;21.10;;;1.80;99.90;;;;;;5070797;28;20269;-51
2022/12/03 09:46:58;;;;;;;28.03;18.60;;;1.90;99.90;;;;;;5071451;28;20263;-51
2022/12/03 09:49:27;;;;;;;22.97;15.90;;;1.90;99.90;;;;;;5063793;28;20584;-49
2022/12/03 09:51:56;;;;;;;22.03;13.20;;;1.90;99.90;;;;;;5067440;28;20195;-50
2022/12/03 09:54:27;;;;;;;17.97;11.97;;;2.00;99.90;;;;;;5061519;28;20224;-50
2022/12/03 09:56:55;;;;;;;23.33;15.80;;;2.00;99.90;;;;;;5071290;28;20212;-49
2022/12/03 09:59:26;;;;;;;24.57;15.13;;;2.20;99.90;;;;;;5071954;28;20212;-49
2022/12/03 10:01:54;;;;;;;21.57;14.37;;;2.30;99.90;;;;;;5065349;28;20888;-49
2022/12/03 10:04:21;;;;;;;22.63;14.40;;;2.40;99.90;;;;;;5068903;28;20263;-50
2022/12/03 10:06:49;;;;;;;15.57;10.93;;;2.40;99.90;;;;;;5074296;28;20206;-50
2022/12/03 10:09:24;;;;;;;20.73;13.73;;;2.50;99.90;;;;;;5071371;28;20263;-50
2022/12/03 10:11:51;;;;;;;20.63;13.47;;;2.50;99.90;;;;;;5071548;28;20301;-51
2022/12/03 10:14:19;;;;;;;19.77;12.30;;;2.50;99.90;;;;;;5068956;28;20281;-50
2022/12/03 10:16:48;;;;;;;20.17;13.03;;;2.50;99.90;;;;;;5071090;28;20215;-50
2022/12/03 10:19:21;;;;;;;20.53;12.23;;;2.60;99.90;;;;;;5071210;28;20215;-49
2022/12/03 10:21:48;;;;;;;16.47;13.43;;;2.50;99.90;;;;;;5071679;28;20794;-50
2022/12/03 10:24:25;;;;;;;13.47;10.13;;;2.60;99.90;;;;;;5073606;28;20222;-50
2022/12/03 10:26:54;;;;;;;14.43;10.43;;;2.70;99.90;;;;;;5072010;28;20207;-49
2022/12/03 10:29:23;;;;;;;15.47;10.50;;;2.70;99.90;;;;;;5072752;28;20207;-49
2022/12/03 10:31:57;;;;;;;14.30;9.10;;;2.70;99.90;;;;;;5074511;28;20286;-50
2022/12/03 10:34:26;;;;;;;16.13;10.17;;;2.70;99.90;;;;;;5089020;28;20286;-49
2022/12/03 10:37:10;;;;;;;17.23;11.10;;;2.50;99.90;;;;;;5086343;28;20228;-54
2022/12/03 10:39:58;;;;;;;16.13;11.80;;;2.50;99.90;;;;;;5078332;28;20199;-50
2022/12/03 10:42:27;;;;;;;14.77;10.17;;;2.40;99.90;;;;;;5093741;28;20221;-49
2022/12/03 10:45:22;;;;;;;17.90;12.57;;;2.30;99.90;;;;;;5090475;28;20218;-50
2022/12/03 10:48:16;;;;;;;14.53;8.87;;;2.40;99.90;;;;;;5084886;28;20214;-50
2022/12/03 10:50:51;;;;;;;14.70;9.57;;;2.30;99.90;;;;;;5070119;28;20194;-49
2022/12/03 10:53:23;;;;;;;13.70;9.40;;;2.20;99.90;;;;;;5069149;28;20206;-49
2022/12/03 10:55:57;;;;;;;12.57;9.03;;;2.20;99.90;;;;;;5069693;28;20223;-51
2022/12/03 10:58:28;;;;;;;13.20;9.93;;;2.30;99.90;;;;;;5066879;28;20198;-50
2022/12/03 11:00:58;;;;;;;12.07;9.20;;;2.30;99.90;;;;;;5069806;28;20364;-50
2022/12/03 11:03:37;;;;;;;22.87;12.27;;;2.30;99.90;;;;;;5070118;28;20203;-50
2022/12/03 11:06:07;;;;;;;12.90;9.70;;;2.20;99.90;;;;;;5073038;28;20229;-50
2022/12/03 11:08:38;;;;;;;13.23;9.17;;;2.30;99.90;;;;;;5070388;28;20207;-49
2022/12/03 11:11:25;;;;;;;11.53;9.43;;;2.30;99.90;;;;;;5070585;28;20290;-49
2022/12/03 11:13:58;;;;;;;13.10;9.47;;;2.20;99.90;;;;;;5069827;28;20243;-50
2022/12/03 11:17:10;;;;;;;13.57;9.70;;;2.20;99.90;;;;;;5070131;28;20206;-49
2022/12/03 11:19:47;;;;;;;13.50;9.97;;;2.30;99.90;;;;;;5071366;28;20203;-49
2022/12/03 11:22:25;;;;;;;17.27;11.30;;;2.20;99.90;;;;;;5070836;28;20230;-49
2022/12/03 11:25:30;;;;;;;17.97;12.03;;;2.30;99.90;;;;;;5070326;28;20332;-49
2022/12/03 11:28:34;;;;;;;18.83;12.17;;;2.30;99.90;;;;;;5070863;28;20198;-49
2022/12/03 11:31:03;;;;;;;14.80;9.93;;;2.30;99.90;;;;;;5038035;28;20245;-50
2022/12/03 11:33:31;;;;;;;12.90;10.10;;;2.30;99.90;;;;;;5073869;28;20198;-49
2022/12/03 11:36:12;;;;;;;13.53;9.07;;;2.30;99.90;;;;;;5074125;28;20583;-50
2022/12/03 11:38:55;;;;;;;10.90;8.03;;;2.30;99.90;;;;;;5074404;28;20197;-50
2022/12/03 11:41:31;;;;;;;13.27;9.60;;;2.30;99.90;;;;;;5074108;28;20264;-50
2022/12/03 11:44:04;;;;;;;11.07;8.07;;;2.40;99.90;;;;;;5053743;28;20227;-49
2022/12/03 11:46:40;;;;;;;13.57;10.37;;;2.50;99.90;;;;;;5055883;28;20561;-51
2022/12/03 11:49:24;;;;;;;13.60;9.23;;;2.50;99.90;;;;;;5068100;28;20201;-50
2022/12/03 11:51:53;;;;;;;12.10;8.87;;;2.50;99.90;;;;;;5074313;28;20245;-50
2022/12/03 11:54:22;;;;;;;10.57;8.63;;;2.50;99.90;;;;;;5069332;28;20226;-50
2022/12/03 11:56:50;;;;;;;13.77;9.50;;;2.50;99.90;;;;;;5073949;28;20641;-51
2022/12/03 11:59:18;;;;;;;12.33;9.23;;;2.60;99.90;;;;;;5073751;28;20605;-51
2022/12/03 12:01:46;;;;;;;13.47;9.47;;;2.60;99.90;;;;;;5073873;28;20288;-51
2022/12/03 12:04:36;;;;;;;12.27;9.60;;;2.60;99.90;;;;;;5073275;28;20251;-50
2022/12/03 12:07:05;;;;;;;11.57;9.07;;;2.50;99.90;;;;;;5054282;28;20203;-50
2022/12/03 12:09:54;;;;;;;16.13;11.23;;;2.60;99.90;;;;;;5054100;28;20243;-49
2022/12/03 12:12:29;;;;;;;15.57;10.50;;;2.60;99.90;;;;;;5058006;28;20667;-49
2022/12/03 12:14:56;;;;;;;15.00;10.47;;;2.60;99.90;;;;;;5072911;28;20244;-50
2022/12/03 12:17:35;;;;;;;12.13;9.83;;;2.60;99.90;;;;;;5074340;28;20202;-49
2022/12/03 12:20:26;;;;;;;14.47;10.03;;;2.60;99.90;;;;;;5073781;28;20707;-50
2022/12/03 12:22:55;;;;;;;13.70;9.97;;;2.60;99.90;;;;;;5062638;28;20277;-49
2022/12/03 12:25:40;;;;;;;15.23;10.97;;;2.60;99.90;;;;;;5074051;28;20398;-50
2022/12/03 12:28:08;;;;;;;12.87;8.93;;;2.60;99.90;;;;;;5070310;28;20257;-50
2022/12/03 12:30:35;;;;;;;13.37;9.23;;;2.70;99.90;;;;;;5075368;28;20203;-50
2022/12/03 12:33:13;;;;;;;16.23;11.37;;;2.70;99.90;;;;;;5069610;28;20215;-49
2022/12/03 12:35:41;;;;;;;13.97;10.57;;;2.70;99.90;;;;;;5072428;28;20272;-50
2022/12/03 12:38:18;;;;;;;16.20;11.37;;;2.70;99.90;;;;;;5065861;28;20206;-52
2022/12/03 12:40:48;;;;;;;13.10;10.00;;;2.60;99.90;;;;;;5073830;28;20333;-50
2022/12/03 12:43:26;;;;;;;13.67;10.40;;;2.60;99.90;;;;;;5069870;28;20199;-50
2022/12/03 12:45:55;;;;;;;14.77;10.60;;;2.70;99.90;;;;;;5071011;28;20226;-50
2022/12/03 12:48:25;;;;;;;14.90;10.40;;;2.60;99.90;;;;;;5067406;28;20248;-50
2022/12/03 12:50:59;;;;;;;13.43;10.10;;;2.70;99.90;;;;;;5076000;28;20202;-49
2022/12/03 12:53:29;;;;;;;15.77;12.67;;;2.60;99.90;;;;;;5081707;28;20670;-50
2022/12/03 12:55:58;;;;;;;19.47;11.93;;;2.60;99.90;;;;;;5071422;28;20265;-49
2022/12/03 12:58:25;;;;;;;20.13;12.27;;;2.60;99.90;;;;;;5070737;28;20204;-51
2022/12/03 13:00:54;;;;;;;17.80;12.40;;;2.60;99.90;;;;;;5064162;28;20720;-50
2022/12/03 13:03:23;;;;;;;16.80;11.77;;;2.60;99.90;;;;;;5066668;28;20254;-50
2022/12/03 13:05:52;;;;;;;16.73;12.07;;;2.60;99.90;;;;;;5067186;28;20231;-49
2022/12/03 13:08:23;;;;;;;15.63;10.40;;;2.70;99.90;;;;;;5071836;28;20203;-50